< < Back
Terminal Aerodrome Forecast


Current Version              Previous Versions:   1  2  3  4  5  6  7  8  9  

Terminal Aerodrome Forecast

157
FTUS42 KCAE 252227 AAB
TAFCAE
TAF AMD
KCAE 252227Z 2522/2618 04010KT P6SM SCT060
     FM260000 07009KT P6SM SCT250
     FM261000 05005KT P6SM BKN015
     FM261600 05007KT P6SM SCT025=

Latest METAR

012
SAUS80 KWBC 260200 RRA
MTRCAE
METAR KCAE 260156Z 09006KT 10SM CLR 28/23 A3010 RMK AO2 SLP187
T02830228


USA.gov is the U.S. government's official web portal to all federal, state and local government web resources and services.